createdAt,value
2023-01-17T00:00:17.711Z,98130.88
2023-01-17T00:02:51.822Z,98134.13
2023-01-17T00:05:45.701Z,98137.53
2023-01-17T00:08:32.517Z,98144.47
2023-01-17T00:11:02.583Z,98150.53
2023-01-17T00:13:33.207Z,98148.25
2023-01-17T00:16:04.788Z,98153.41
2023-01-17T00:18:37.542Z,98177.06
2023-01-17T00:21:26.218Z,98185.47
2023-01-17T00:24:13.865Z,98184.84
2023-01-17T00:27:02.465Z,98191.97
2023-01-17T00:29:33.625Z,98204.31
2023-01-17T00:32:08.879Z,98205.75
2023-01-17T00:34:37.409Z,98215.25
2023-01-17T00:37:05.459Z,98217.81
2023-01-17T00:39:33.121Z,98222.31
2023-01-17T00:42:00.988Z,98228.53
2023-01-17T00:44:49.672Z,98232.84
2023-01-17T00:47:36.918Z,98224.19
2023-01-17T00:50:23.443Z,98236.88
2023-01-17T00:53:10.763Z,98240.75
2023-01-17T00:55:57.566Z,98245.25
2023-01-17T00:58:44.105Z,98250.38
2023-01-17T01:01:31.351Z,98254.69
2023-01-17T01:04:18.353Z,98257.94
2023-01-17T01:07:04.750Z,98257.09
2023-01-17T01:09:51.349Z,98261.19
2023-01-17T01:12:39.819Z,98275.66
2023-01-17T01:15:28.029Z,98278.31
2023-01-17T01:18:14.469Z,98279.22
2023-01-17T01:21:03.439Z,98288.59
2023-01-17T01:23:50.681Z,98285.03
2023-01-17T01:26:36.867Z,98298.44
2023-01-17T01:29:23.841Z,98299.75
2023-01-17T01:32:12.855Z,98301.44
2023-01-17T01:34:42.666Z,98301.44
2023-01-17T01:37:10.799Z,98308.16
2023-01-17T01:39:43.620Z,98304.75
2023-01-17T01:42:17.071Z,98320.19
2023-01-17T01:44:56.607Z,98327.78
2023-01-17T01:47:39.359Z,98327.78
2023-01-17T01:50:11.166Z,98343.06
2023-01-17T01:52:46.917Z,98341.16
2023-01-17T01:55:23.876Z,98348.66
2023-01-17T01:58:03.331Z,98351.84
2023-01-17T02:00:41.284Z,98353.41
2023-01-17T02:03:23.199Z,98351.53
2023-01-17T02:05:52.744Z,98350.50
2023-01-17T02:08:24.418Z,98351.94
2023-01-17T02:10:53.336Z,98358.53
2023-01-17T02:13:22.650Z,98359.13
2023-01-17T02:16:28.259Z,98361.38
2023-01-17T02:19:02.621Z,98375.84
2023-01-17T02:22:20.209Z,98374.75
2023-01-17T02:25:15.424Z,98383.19
2023-01-17T02:28:41.003Z,98383.03
2023-01-17T02:31:32.513Z,98377.88
2023-01-17T02:34:36.683Z,98384.75
2023-01-17T02:37:58.557Z,98387.41
2023-01-17T02:40:38.271Z,98387.31
2023-01-17T02:43:16.386Z,98379.50
2023-01-17T02:45:46.112Z,98382.00
2023-01-17T02:48:19.748Z,98387.16
2023-01-17T02:51:13.283Z,98378.53
2023-01-17T02:54:12.739Z,98378.69
2023-01-17T02:57:18.686Z,98378.94
2023-01-17T03:00:24.639Z,98385.91
2023-01-17T03:03:08.707Z,98388.75
2023-01-17T03:05:48.134Z,98387.13
2023-01-17T03:08:19.278Z,98388.97
2023-01-17T03:10:47.361Z,98389.13
2023-01-17T03:13:15.705Z,98394.53
2023-01-17T03:15:44.228Z,98411.88
2023-01-17T03:18:17.065Z,98403.47
2023-01-17T03:20:44.973Z,98409.69
2023-01-17T03:23:13.641Z,98417.63
2023-01-17T03:25:42.012Z,98420.38
2023-01-17T03:28:11.311Z,98424.94
2023-01-17T03:30:41.737Z,98426.84
2023-01-17T03:33:13.132Z,98425.53
2023-01-17T03:35:44.053Z,98434.78
2023-01-17T03:38:12.449Z,98430.03
2023-01-17T03:40:43.510Z,98428.41
2023-01-17T03:43:16.211Z,98434.56
2023-01-17T03:45:54.592Z,98438.13
2023-01-17T03:48:22.923Z,98435.63
2023-01-17T03:50:54.414Z,98439.00
2023-01-17T03:53:22.478Z,98432.16
2023-01-17T03:55:50.936Z,98426.06
2023-01-17T03:58:24.387Z,98427.28
2023-01-17T04:00:54.953Z,98434.94
2023-01-17T04:03:25.709Z,98435.75
2023-01-17T04:05:53.420Z,98444.38
2023-01-17T04:08:21.259Z,98447.88
2023-01-17T04:10:48.668Z,98453.94
2023-01-17T04:13:17.306Z,98452.19
2023-01-17T04:15:50.361Z,98453.72
2023-01-17T04:18:20.950Z,98446.75
2023-01-17T04:20:51.733Z,98445.91
2023-01-17T04:23:19.928Z,98452.03
2023-01-17T04:25:47.765Z,98448.72
2023-01-17T04:28:15.786Z,98461.72
2023-01-17T04:30:46.630Z,98461.81
2023-01-17T04:33:18.655Z,98452.47
2023-01-17T04:35:49.370Z,98451.72
2023-01-17T04:38:17.609Z,98448.34
2023-01-17T04:40:46.135Z,98444.97
2023-01-17T04:43:15.971Z,98449.38
2023-01-17T04:45:43.635Z,98449.59
2023-01-17T04:48:16.110Z,98451.28
2023-01-17T04:50:43.430Z,98448.78
2023-01-17T04:53:11.256Z,98448.00
2023-01-17T04:55:38.909Z,98449.00
2023-01-17T04:58:07.021Z,98452.47
2023-01-17T05:00:36.762Z,98461.16
2023-01-17T05:03:06.490Z,98453.50
2023-01-17T05:05:35.169Z,98457.00
2023-01-17T05:08:04.388Z,98457.00
2023-01-17T05:10:32.172Z,98453.56
2023-01-17T05:13:00.729Z,98445.84
2023-01-17T05:15:30.557Z,98454.44
2023-01-17T05:18:00.561Z,98456.06
2023-01-17T05:20:29.539Z,98460.31
2023-01-17T05:22:58.649Z,98463.72
2023-01-17T05:25:32.512Z,98471.38
2023-01-17T05:28:00.814Z,98469.50
2023-01-17T05:30:32.299Z,98469.44
2023-01-17T05:33:02.314Z,98474.44
2023-01-17T05:35:35.989Z,98476.09
2023-01-17T05:38:04.490Z,98478.72
2023-01-17T05:40:36.930Z,98472.00
2023-01-17T05:43:11.081Z,98474.59
2023-01-17T05:45:44.469Z,98474.72
2023-01-17T05:48:13.185Z,98477.38
2023-01-17T05:50:44.480Z,98479.09
2023-01-17T05:53:15.958Z,98480.91
2023-01-17T05:55:45.160Z,98496.28
2023-01-17T05:58:23.455Z,98493.56
2023-01-17T06:00:54.792Z,98497.75
2023-01-17T06:03:22.752Z,98496.06
2023-01-17T06:05:50.684Z,98490.91
2023-01-17T06:11:04.296Z,98496.88
2023-01-17T06:13:33.296Z,98490.91
2023-01-17T06:16:11.455Z,98500.53
2023-01-17T06:18:41.676Z,98498.03
2023-01-17T06:21:10.336Z,98500.75
2023-01-17T06:23:39.548Z,98501.63
2023-01-17T06:26:11.388Z,98500.88
2023-01-17T06:28:41.232Z,98500.88
2023-01-17T06:31:10.372Z,98501.84
2023-01-17T06:33:38.906Z,98507.91
2023-01-17T06:36:24.852Z,98505.47
2023-01-17T06:38:56.950Z,98509.84
2023-01-17T06:41:26.014Z,98514.25
2023-01-17T06:43:55.295Z,98514.31
2023-01-17T06:46:31.008Z,98514.47
2023-01-17T06:49:03.968Z,98518.75
2023-01-17T06:51:39.160Z,98513.66
2023-01-17T06:54:13.149Z,98518.13
2023-01-17T06:56:43.894Z,98521.59
2023-01-17T06:59:27.196Z,98514.81
2023-01-17T07:01:57.248Z,98519.16
2023-01-17T07:04:28.687Z,98513.19
2023-01-17T07:06:58.972Z,98518.41
2023-01-17T07:09:29.253Z,98519.28
2023-01-17T07:12:02.027Z,98522.00
2023-01-17T07:14:33.145Z,98525.56
2023-01-17T07:17:07.000Z,98530.78
2023-01-17T07:22:26.394Z,98526.66
2023-01-17T07:25:01.342Z,98525.91
2023-01-17T07:27:30.948Z,98532.00
2023-01-17T07:30:14.766Z,98537.22
2023-01-17T07:32:45.166Z,98542.50
2023-01-17T07:35:21.865Z,98538.31
2023-01-17T07:37:51.430Z,98544.38
2023-01-17T07:43:14.544Z,98543.72
2023-01-17T07:45:52.096Z,98549.78
2023-01-17T07:48:34.427Z,98549.06
2023-01-17T07:54:11.409Z,98555.19
2023-01-17T07:56:46.576Z,98558.66
2023-01-17T07:59:16.217Z,98557.88
2023-01-17T08:01:53.913Z,98563.78
2023-01-17T08:07:23.910Z,98556.91
2023-01-17T08:09:56.780Z,98559.41
2023-01-17T08:12:34.935Z,98561.09
2023-01-17T08:15:13.241Z,98554.19
2023-01-17T08:20:47.680Z,98551.56
2023-01-17T08:23:20.568Z,98558.31
2023-01-17T08:26:01.997Z,98557.44
2023-01-17T08:28:38.143Z,98550.47
2023-01-17T08:31:16.660Z,98550.28
2023-01-17T08:33:46.971Z,98554.47
2023-01-17T08:36:27.129Z,98552.66
2023-01-17T08:39:02.417Z,98555.91
2023-01-17T08:41:41.332Z,98560.03
2023-01-17T08:44:15.077Z,98556.44
2023-01-17T08:46:48.424Z,98559.69
2023-01-17T08:49:31.826Z,98558.72
2023-01-17T08:52:14.468Z,98565.31
2023-01-17T08:54:43.922Z,98567.75
2023-01-17T08:57:20.778Z,98560.88
2023-01-17T09:02:52.081Z,98575.00
2023-01-17T09:05:36.674Z,98568.06
2023-01-17T09:08:08.801Z,98571.38
2023-01-17T09:10:41.611Z,98568.69
2023-01-17T09:13:19.045Z,98575.50
2023-01-17T09:16:07.868Z,98571.19
2023-01-17T09:21:31.515Z,98581.41
2023-01-17T09:24:04.340Z,98582.16
2023-01-17T09:27:00.104Z,98586.34
2023-01-17T09:29:38.877Z,98587.97
2023-01-17T09:32:07.573Z,98598.03
2023-01-17T09:34:38.484Z,98596.91
2023-01-17T09:37:11.183Z,98595.88
2023-01-17T09:39:45.159Z,98599.06
2023-01-17T09:42:42.872Z,98608.09
2023-01-17T09:45:21.491Z,98605.19
2023-01-17T09:47:58.067Z,98612.75
2023-01-17T09:50:40.856Z,98610.81
2023-01-17T09:53:33.459Z,98620.81
2023-01-17T09:56:12.206Z,98611.97
2023-01-17T09:59:02.400Z,98615.22
2023-01-17T10:02:15.868Z,98619.28
2023-01-17T10:05:32.479Z,98617.91
2023-01-17T10:08:28.771Z,98623.47
2023-01-17T10:12:10.696Z,98613.53
2023-01-17T10:15:33.627Z,98617.28
2023-01-17T10:18:48.378Z,98615.13
2023-01-17T10:22:12.222Z,98610.34
2023-01-17T10:25:23.722Z,98614.97
2023-01-17T10:28:48.886Z,98611.03
2023-01-17T10:31:35.820Z,98607.44
2023-01-17T10:34:53.075Z,98611.25
2023-01-17T10:37:40.446Z,98598.38
2023-01-17T10:40:33.988Z,98612.16
2023-01-17T10:43:56.153Z,98605.03
2023-01-17T10:47:39.755Z,98606.63
2023-01-17T10:50:19.600Z,98603.41
2023-01-17T10:53:42.193Z,98606.69
2023-01-17T10:56:28.805Z,98610.34
2023-01-17T10:59:35.332Z,98603.75
2023-01-17T11:02:43.688Z,98611.19
2023-01-17T11:05:31.546Z,98602.72
2023-01-17T11:11:04.652Z,98595.09
2023-01-17T11:13:40.929Z,98588.47
2023-01-17T11:16:22.704Z,98596.41
2023-01-17T11:19:38.294Z,98594.09
2023-01-17T11:28:40.696Z,98604.06
2023-01-17T11:31:33.215Z,98602.22
2023-01-17T11:34:33.345Z,98593.19
2023-01-17T11:37:21.499Z,98591.28
2023-01-17T11:40:06.271Z,98595.28
2023-01-17T11:42:41.342Z,98581.53
2023-01-17T11:45:34.550Z,98588.78
2023-01-17T11:48:30.025Z,98592.28
2023-01-17T11:51:05.175Z,98586.81
2023-01-17T11:53:52.946Z,98588.25
2023-01-17T11:57:02.701Z,98580.66
2023-01-17T11:59:50.691Z,98577.31
2023-01-17T12:03:30.159Z,98584.91
2023-01-17T12:06:26.902Z,98581.19
2023-01-17T12:09:23.115Z,98585.41
2023-01-17T12:12:58.990Z,98588.66
2023-01-17T12:16:34.266Z,98589.22
2023-01-17T12:20:05.199Z,98574.97
2023-01-17T12:23:14.705Z,98576.50
2023-01-17T12:26:09.284Z,98575.25
2023-01-17T12:29:47.324Z,98576.44
2023-01-17T12:33:21.664Z,98574.09
2023-01-17T12:36:22.329Z,98569.00
2023-01-17T12:38:56.146Z,98562.75
2023-01-17T12:42:22.330Z,98566.41
2023-01-17T12:45:26.848Z,98560.66
2023-01-17T12:48:11.885Z,98562.31
2023-01-17T12:51:24.665Z,98565.59
2023-01-17T12:54:20.993Z,98562.13
2023-01-17T12:57:28.225Z,98559.22
2023-01-17T13:00:17.413Z,98563.94
2023-01-17T13:03:31.840Z,98563.22
2023-01-17T13:06:04.612Z,98558.75
2023-01-17T13:08:50.124Z,98561.41
2023-01-17T13:11:51.240Z,98557.56
2023-01-17T13:14:24.275Z,98564.84
2023-01-17T13:17:45.565Z,98562.41
2023-01-17T13:21:17.277Z,98564.59
2023-01-17T13:24:01.085Z,98569.06
2023-01-17T13:26:57.615Z,98569.56
2023-01-17T13:29:49.684Z,98569.41
2023-01-17T13:33:13.601Z,98566.41
2023-01-17T13:36:05.687Z,98565.47
2023-01-17T13:39:27.380Z,98561.78
2023-01-17T13:42:27.092Z,98563.72
2023-01-17T13:45:03.142Z,98562.00
2023-01-17T13:48:00.355Z,98564.56
2023-01-17T13:51:04.988Z,98561.84
2023-01-17T13:53:49.924Z,98563.94
2023-01-17T13:56:35.013Z,98568.78
2023-01-17T13:59:31.532Z,98564.00
2023-01-17T14:02:00.105Z,98568.91
2023-01-17T14:05:39.239Z,98576.78
2023-01-17T14:08:22.451Z,98574.47
2023-01-17T14:11:06.237Z,98586.28
2023-01-17T14:13:40.928Z,98582.72
2023-01-17T14:16:43.878Z,98582.75
2023-01-17T14:19:30.748Z,98570.75
2023-01-17T14:22:23.047Z,98579.28
2023-01-17T14:25:20.097Z,98576.34
2023-01-17T14:28:32.092Z,98575.22
2023-01-17T14:31:04.183Z,98584.72
2023-01-17T14:33:40.258Z,98584.25
2023-01-17T14:36:40.881Z,98583.31
2023-01-17T14:39:29.682Z,98583.81
2023-01-17T14:42:00.040Z,98588.22
2023-01-17T14:44:34.368Z,98585.88
2023-01-17T14:47:08.659Z,98594.66
2023-01-17T14:49:36.244Z,98592.25
2023-01-17T14:52:06.777Z,98584.34
2023-01-17T14:54:57.780Z,98600.31
2023-01-17T14:57:30.855Z,98591.63
2023-01-17T15:00:22.601Z,98588.56
2023-01-17T15:02:55.384Z,98592.03
2023-01-17T15:05:30.981Z,98596.19
2023-01-17T15:11:05.482Z,98606.34
2023-01-17T15:13:45.248Z,98602.53
2023-01-17T15:16:54.023Z,98603.09
2023-01-17T15:19:28.137Z,98601.94
2023-01-17T15:21:57.623Z,98616.84
2023-01-17T15:24:39.105Z,98618.72
2023-01-17T15:27:14.550Z,98625.75
2023-01-17T15:29:47.455Z,98622.16
2023-01-17T15:32:39.070Z,98624.59
2023-01-17T15:35:21.717Z,98619.94
2023-01-17T15:38:02.326Z,98623.50
2023-01-17T15:40:40.334Z,98621.03
2023-01-17T15:43:25.490Z,98617.75
2023-01-17T15:45:58.028Z,98628.75
2023-01-17T15:48:47.250Z,98628.75
2023-01-17T15:51:32.268Z,98628.56
2023-01-17T15:54:52.781Z,98627.63
2023-01-17T15:57:50.981Z,98628.53
2023-01-17T16:00:46.712Z,98623.97
2023-01-17T16:03:38.764Z,98621.00
2023-01-17T16:06:45.917Z,98628.56
2023-01-17T16:09:32.725Z,98632.69
2023-01-17T16:15:11.208Z,98620.78
2023-01-17T16:17:48.773Z,98625.31
2023-01-17T16:20:22.603Z,98626.38
2023-01-17T16:22:51.432Z,98637.06
2023-01-17T16:25:23.474Z,98643.50
2023-01-17T16:27:52.915Z,98648.16
2023-01-17T16:30:26.892Z,98659.59
2023-01-17T16:33:06.623Z,98651.25
2023-01-17T16:38:30.139Z,98644.16
2023-01-17T16:41:23.534Z,98635.09
2023-01-17T16:44:06.794Z,98643.09
2023-01-17T16:46:38.613Z,98649.50
2023-01-17T16:49:09.003Z,98645.31
2023-01-17T16:51:41.840Z,98657.47
2023-01-17T16:54:11.328Z,98645.78
2023-01-17T16:56:48.832Z,98653.63
2023-01-17T16:59:19.140Z,98658.03
2023-01-17T17:01:49.561Z,98653.19
2023-01-17T17:04:26.467Z,98653.44
2023-01-17T17:06:57.819Z,98664.97
2023-01-17T17:09:27.636Z,98660.91
2023-01-17T17:12:00.885Z,98674.56
2023-01-17T17:14:38.803Z,98679.06
2023-01-17T17:17:08.894Z,98680.09
2023-01-17T17:19:39.043Z,98682.03
2023-01-17T17:22:08.264Z,98676.94
2023-01-17T17:25:02.721Z,98688.16
2023-01-17T17:27:30.905Z,98695.16
2023-01-17T17:30:02.656Z,98682.50
2023-01-17T17:32:33.923Z,98695.38
2023-01-17T17:35:05.773Z,98701.44
2023-01-17T17:37:36.655Z,98705.94
2023-01-17T17:40:07.010Z,98706.84
2023-01-17T17:42:37.345Z,98700.09
2023-01-17T17:45:15.471Z,98708.81
2023-01-17T17:47:44.880Z,98710.72
2023-01-17T17:50:15.981Z,98709.19
2023-01-17T17:52:48.699Z,98709.34
2023-01-17T17:55:19.958Z,98714.50
2023-01-17T17:58:06.292Z,98722.31
2023-01-17T18:00:38.957Z,98724.28
2023-01-17T18:03:07.340Z,98729.44
2023-01-17T18:05:39.303Z,98747.56
2023-01-17T18:08:07.033Z,98736.56
2023-01-17T18:10:39.608Z,98738.38
2023-01-17T18:13:08.535Z,98740.22
2023-01-17T18:15:37.009Z,98742.00
2023-01-17T18:18:04.929Z,98751.78
2023-01-17T18:20:32.890Z,98752.75
2023-01-17T18:23:02.754Z,98758.91
2023-01-17T18:25:30.366Z,98759.13
2023-01-17T18:27:59.319Z,98760.03
2023-01-17T18:30:29.224Z,98767.22
2023-01-17T18:33:00.116Z,98772.59
2023-01-17T18:35:29.268Z,98778.03
2023-01-17T18:38:01.619Z,98773.16
2023-01-17T18:40:31.342Z,98775.16
2023-01-17T18:43:11.848Z,98771.13
2023-01-17T18:45:45.785Z,98770.47
2023-01-17T18:48:19.148Z,98769.72
2023-01-17T18:51:02.776Z,98771.66
2023-01-17T18:53:33.974Z,98767.47
2023-01-17T18:56:08.116Z,98776.16
2023-01-17T18:58:42.051Z,98780.69
2023-01-17T19:01:33.636Z,98773.09
2023-01-17T19:04:06.394Z,98786.94
2023-01-17T19:06:41.882Z,98780.34
2023-01-17T19:09:14.973Z,98789.81
2023-01-17T19:11:45.139Z,98786.44
2023-01-17T19:14:16.028Z,98788.34
2023-01-17T19:16:56.473Z,98804.75
2023-01-17T19:19:27.470Z,98795.22
2023-01-17T19:21:54.878Z,98803.72
2023-01-17T19:24:23.464Z,98805.47
2023-01-17T19:26:53.470Z,98808.94
2023-01-17T19:29:23.929Z,98803.72
2023-01-17T19:31:53.245Z,98803.91
2023-01-17T19:34:20.677Z,98813.25
2023-01-17T19:36:48.626Z,98810.69
2023-01-17T19:39:16.018Z,98809.06
2023-01-17T19:41:47.371Z,98817.69
2023-01-17T19:44:16.008Z,98805.78
2023-01-17T19:46:48.153Z,98812.66
2023-01-17T19:49:20.208Z,98814.47
2023-01-17T19:51:47.643Z,98817.19
2023-01-17T19:54:15.740Z,98816.41
2023-01-17T19:56:51.951Z,98819.94
2023-01-17T19:59:21.277Z,98825.22
2023-01-17T20:01:50.819Z,98829.66
2023-01-17T20:04:20.704Z,98833.19
2023-01-17T20:07:01.524Z,98844.50
2023-01-17T20:09:29.247Z,98839.47
2023-01-17T20:11:56.917Z,98826.81
2023-01-17T20:14:25.019Z,98822.66
2023-01-17T20:17:02.259Z,98823.59
2023-01-17T20:19:39.021Z,98835.69
2023-01-17T20:22:10.091Z,98828.22
2023-01-17T20:24:53.770Z,98833.31
2023-01-17T20:27:32.327Z,98833.31
2023-01-17T20:30:11.082Z,98841.91
2023-01-17T20:32:50.253Z,98843.78
2023-01-17T20:35:23.057Z,98844.72
2023-01-17T20:38:01.307Z,98849.19
2023-01-17T20:40:31.118Z,98843.22
2023-01-17T20:43:05.040Z,98847.66
2023-01-17T20:45:36.568Z,98851.94
2023-01-17T20:48:19.183Z,98847.66
2023-01-17T20:50:56.031Z,98849.47
2023-01-17T20:53:25.351Z,98851.19
2023-01-17T20:56:01.451Z,98858.91
2023-01-17T20:58:31.939Z,98851.25
2023-01-17T21:01:04.708Z,98851.31
2023-01-17T21:03:36.858Z,98848.81
2023-01-17T21:06:24.724Z,98849.72
2023-01-17T21:08:55.901Z,98843.72
2023-01-17T21:11:30.852Z,98842.81
2023-01-17T21:13:58.595Z,98854.84
2023-01-17T21:16:28.074Z,98853.13
2023-01-17T21:19:04.361Z,98855.81
2023-01-17T21:21:31.946Z,98855.81
2023-01-17T21:24:01.621Z,98854.91
2023-01-17T21:26:38.901Z,98859.25
2023-01-17T21:29:09.111Z,98860.13
2023-01-17T21:31:42.454Z,98865.38
2023-01-17T21:34:13.764Z,98868.84
2023-01-17T21:36:43.733Z,98864.59
2023-01-17T21:39:18.853Z,98861.19
2023-01-17T21:41:51.292Z,98874.09
2023-01-17T21:44:22.279Z,98864.69
2023-01-17T21:46:57.375Z,98871.59
2023-01-17T21:49:27.811Z,98870.75
2023-01-17T21:51:56.213Z,98865.69
2023-01-17T21:54:51.892Z,98875.97
2023-01-17T21:57:41.919Z,98877.69
2023-01-17T22:00:16.630Z,98884.63
2023-01-17T22:02:48.248Z,98882.94
2023-01-17T22:05:21.690Z,98873.63
2023-01-17T22:08:08.317Z,98871.94
2023-01-17T22:10:47.815Z,98876.25
2023-01-17T22:13:19.813Z,98875.41
2023-01-17T22:16:00.506Z,98878.03
2023-01-17T22:18:37.571Z,98878.03
2023-01-17T22:21:17.370Z,98873.81
2023-01-17T22:23:52.843Z,98873.00
2023-01-17T22:26:23.870Z,98883.41
2023-01-17T22:28:56.538Z,98878.38
2023-01-17T22:31:26.920Z,98877.66
2023-01-17T22:34:04.327Z,98888.94
2023-01-17T22:36:35.816Z,98887.34
2023-01-17T22:39:08.219Z,98885.72
2023-01-17T22:41:39.958Z,98885.00
2023-01-17T22:44:08.564Z,98878.22
2023-01-17T22:46:38.592Z,98879.97
2023-01-17T22:49:08.389Z,98887.78
2023-01-17T22:51:37.005Z,98887.00
2023-01-17T22:54:04.969Z,98884.50
2023-01-17T22:56:36.507Z,98882.03
2023-01-17T22:59:14.068Z,98887.25
2023-01-17T23:01:44.777Z,98886.38
2023-01-17T23:04:16.600Z,98882.97
2023-01-17T23:06:46.623Z,98887.41
2023-01-17T23:09:17.252Z,98902.69
2023-01-17T23:11:55.668Z,98912.13
2023-01-17T23:15:00.927Z,98902.81
2023-01-17T23:17:48.343Z,98901.13
2023-01-17T23:20:17.614Z,98906.25
2023-01-17T23:22:45.684Z,98902.97
2023-01-17T23:25:14.797Z,98903.91
2023-01-17T23:28:08.556Z,98898.72
2023-01-17T23:30:42.014Z,98903.91
2023-01-17T23:33:16.388Z,98899.72
2023-01-17T23:35:46.479Z,98896.31
2023-01-17T23:38:25.823Z,98904.91
2023-01-17T23:41:19.530Z,98903.31
2023-01-17T23:43:56.920Z,98905.88
2023-01-17T23:46:31.431Z,98904.19
2023-01-17T23:49:01.301Z,98903.47
2023-01-17T23:51:30.331Z,98906.81
2023-01-17T23:54:05.238Z,98905.13
2023-01-17T23:56:38.960Z,98912.00
2023-01-17T23:59:09.143Z,98904.34
